Time;durP1;ratioP1;P1;durP2;ratioP2;P2;SDS_P1;SDS_P2;PMS_P1;PMS_P2;Temp;Humidity;BMP_temperature;BMP_pressure;BME280_temperature;BME280_humidity;BME280_pressure;Samples;Min_cycle;Max_cycle;Signal;HPM_P1;HPM_P2
2021/07/18 00:02:07;;;;;;;6.50;4.40;;;19.50;80.90;;;;;;4998750;28;20534;-79
2021/07/18 00:04:33;;;;;;;5.90;2.27;;;19.40;81.00;;;;;;4997962;28;20183;-78
2021/07/18 00:06:58;;;;;;;4.13;2.97;;;19.40;81.10;;;;;;4997856;28;20709;-80
2021/07/18 00:09:24;;;;;;;4.20;3.50;;;19.30;81.40;;;;;;4996785;28;20418;-80
2021/07/18 00:11:50;;;;;;;3.07;2.20;;;19.30;81.80;;;;;;4996595;28;20214;-78
2021/07/18 00:14:16;;;;;;;4.50;2.60;;;19.20;82.10;;;;;;4996182;28;20280;-78
2021/07/18 00:16:41;;;;;;;3.53;2.57;;;19.20;82.50;;;;;;4996436;28;20747;-77
2021/07/18 00:19:07;;;;;;;3.50;3.20;;;19.20;82.80;;;;;;4995797;28;20260;-79
2021/07/18 00:21:34;;;;;;;10.57;2.63;;;19.20;83.10;;;;;;4996378;28;20172;-79
2021/07/18 00:23:59;;;;;;;3.37;2.20;;;19.20;83.30;;;;;;4995392;28;20455;-79
2021/07/18 00:26:25;;;;;;;5.07;2.73;;;19.10;83.40;;;;;;4997291;28;20435;-79
2021/07/18 00:28:51;;;;;;;6.17;2.30;;;19.10;83.90;;;;;;4997353;28;20210;-79
2021/07/18 00:31:17;;;;;;;6.30;2.40;;;19.10;84.20;;;;;;4997443;28;20160;-80
2021/07/18 00:33:43;;;;;;;4.60;2.50;;;19.00;84.30;;;;;;4996590;28;20251;-79
2021/07/18 00:36:08;;;;;;;6.53;2.40;;;19.00;84.80;;;;;;4998372;28;20454;-79
2021/07/18 00:38:34;;;;;;;4.10;2.03;;;19.00;85.00;;;;;;4998379;28;20208;-80
2021/07/18 00:41:00;;;;;;;5.00;2.20;;;18.90;85.00;;;;;;4995146;28;20168;-79
2021/07/18 00:43:26;;;;;;;4.23;2.33;;;18.90;85.40;;;;;;4995461;28;20676;-79
2021/07/18 00:45:59;;;;;;;7.23;2.90;;;18.90;85.70;;;;;;4996673;28;20288;-79
2021/07/18 00:48:27;;;;;;;5.10;2.90;;;18.80;86.10;;;;;;4995895;28;20191;-79
2021/07/18 00:50:54;;;;;;;4.17;2.20;;;18.80;86.30;;;;;;4996728;28;20401;-78
2021/07/18 00:53:20;;;;;;;3.40;2.13;;;18.80;86.40;;;;;;4997277;28;20410;-79
2021/07/18 00:55:46;;;;;;;4.33;2.33;;;18.70;86.50;;;;;;4997745;28;20765;-79
2021/07/18 00:58:13;;;;;;;3.10;2.00;;;18.70;87.60;;;;;;4995886;28;20167;-79
2021/07/18 01:00:39;;;;;;;3.50;2.60;;;18.70;87.00;;;;;;4997329;28;20178;-79
2021/07/18 01:03:07;;;;;;;4.30;2.73;;;18.70;87.10;;;;;;4999920;28;20450;-79
2021/07/18 01:05:33;;;;;;;3.70;2.03;;;18.70;87.30;;;;;;5009117;28;20415;-78
2021/07/18 01:07:59;;;;;;;4.17;2.70;;;18.60;87.50;;;;;;5000637;28;20458;-79
2021/07/18 01:10:25;;;;;;;6.07;2.57;;;18.60;87.80;;;;;;4979190;28;20433;-78
2021/07/18 01:12:51;;;;;;;3.30;2.70;;;18.60;88.10;;;;;;5001114;28;20415;-79
2021/07/18 01:15:17;;;;;;;6.10;3.20;;;18.50;88.40;;;;;;4995824;28;20444;-79
2021/07/18 01:17:43;;;;;;;4.93;2.93;;;18.50;88.70;;;;;;4979021;28;20286;-79
2021/07/18 01:20:10;;;;;;;3.50;2.80;;;18.50;88.70;;;;;;4995700;28;20175;-79
2021/07/18 01:22:36;;;;;;;4.63;3.10;;;18.40;88.80;;;;;;4995959;28;20176;-79
2021/07/18 01:25:06;;;;;;;3.63;2.60;;;18.40;89.00;;;;;;4999633;28;20453;-80
2021/07/18 01:27:33;;;;;;;4.83;2.83;;;18.40;89.30;;;;;;4997345;28;20498;-79
2021/07/18 01:30:00;;;;;;;6.17;3.00;;;18.30;89.40;;;;;;4998440;28;20418;-79
2021/07/18 01:32:25;;;;;;;6.80;3.30;;;18.30;89.70;;;;;;4997677;28;20538;-78
2021/07/18 01:34:52;;;;;;;5.07;3.20;;;18.30;89.90;;;;;;5004793;28;20443;-78
2021/07/18 01:37:18;;;;;;;5.30;2.80;;;18.20;89.90;;;;;;5003427;28;20190;-79
2021/07/18 01:39:44;;;;;;;5.00;3.10;;;18.20;90.10;;;;;;4987505;28;20486;-80
2021/07/18 01:42:10;;;;;;;5.60;3.20;;;18.20;90.20;;;;;;5002306;28;20184;-79
2021/07/18 01:44:36;;;;;;;6.40;5.40;;;18.10;90.30;;;;;;5003839;28;20457;-78
2021/07/18 01:47:02;;;;;;;4.40;2.70;;;18.20;90.40;;;;;;5001839;28;20234;-77
2021/07/18 01:49:28;;;;;;;9.30;2.70;;;18.10;90.40;;;;;;5002203;28;20199;-80
2021/07/18 01:51:53;;;;;;;4.23;3.10;;;18.10;90.40;;;;;;5001327;28;20426;-80
2021/07/18 01:54:19;;;;;;;4.57;3.10;;;18.10;90.40;;;;;;5000736;28;20241;-79
2021/07/18 01:56:45;;;;;;;4.33;3.20;;;18.10;90.50;;;;;;4987514;28;20254;-79
2021/07/18 01:59:12;;;;;;;4.97;3.30;;;18.10;90.50;;;;;;5000851;28;20173;-80
2021/07/18 02:01:38;;;;;;;7.20;3.23;;;18.00;90.60;;;;;;4996224;28;20204;-79
2021/07/18 02:04:04;;;;;;;7.80;4.27;;;17.90;90.60;;;;;;4982627;28;20411;-80
2021/07/18 02:06:31;;;;;;;10.87;5.20;;;17.90;90.80;;;;;;4980218;28;20189;-79
2021/07/18 02:08:59;;;;;;;7.70;3.90;;;17.90;91.00;;;;;;4982361;28;20538;-79
2021/07/18 02:11:25;;;;;;;5.13;4.20;;;17.90;91.10;;;;;;4981656;28;20412;-79
2021/07/18 02:13:53;;;;;;;7.93;2.97;;;17.80;91.50;;;;;;4966318;28;20403;-79
2021/07/18 02:16:20;;;;;;;3.87;3.10;;;17.80;91.30;;;;;;4984295;28;20590;-79
2021/07/18 02:18:46;;;;;;;8.17;3.77;;;17.80;91.70;;;;;;5001275;28;20461;-79
2021/07/18 02:21:13;;;;;;;6.80;4.00;;;17.70;91.30;;;;;;5002129;28;20422;-81
2021/07/18 02:23:38;;;;;;;4.07;2.87;;;17.70;91.50;;;;;;5001670;28;20415;-80
2021/07/18 02:26:04;;;;;;;7.17;3.43;;;17.70;91.60;;;;;;5001179;28;20485;-78
2021/07/18 02:28:30;;;;;;;5.03;4.00;;;17.70;91.70;;;;;;5002729;28;20203;-78
2021/07/18 02:30:56;;;;;;;7.70;3.80;;;17.60;91.70;;;;;;5001799;28;20591;-78
2021/07/18 02:33:22;;;;;;;10.43;4.93;;;17.60;91.70;;;;;;5005882;28;20434;-78
2021/07/18 02:35:47;;;;;;;6.80;3.77;;;17.60;91.80;;;;;;5007629;28;20411;-79
2021/07/18 02:38:13;;;;;;;6.93;3.53;;;17.60;91.90;;;;;;5006953;28;20176;-80
2021/07/18 02:40:39;;;;;;;7.30;3.70;;;17.60;91.90;;;;;;5009827;28;20194;-79
2021/07/18 02:43:04;;;;;;;5.40;3.60;;;17.60;92.00;;;;;;4998199;28;20270;-80
2021/07/18 02:45:32;;;;;;;6.80;4.43;;;17.50;91.90;;;;;;4998656;28;20732;-79
2021/07/18 02:47:58;;;;;;;6.60;3.77;;;17.50;92.00;;;;;;5000141;28;20684;-80
2021/07/18 02:50:27;;;;;;;9.70;4.60;;;17.50;92.40;;;;;;5000532;28;20640;-79
2021/07/18 02:52:53;;;;;;;5.80;3.83;;;17.50;92.20;;;;;;5000602;28;20407;-79
2021/07/18 02:55:20;;;;;;;4.60;3.70;;;17.40;92.20;;;;;;4997875;28;20517;-79
2021/07/18 02:57:46;;;;;;;7.07;3.30;;;17.40;92.20;;;;;;4999239;28;20431;-78
2021/07/18 03:00:18;;;;;;;8.70;4.20;;;17.40;92.30;;;;;;4997425;28;20469;-79
2021/07/18 03:02:45;;;;;;;11.70;5.80;;;17.40;92.30;;;;;;4997146;28;20423;-78
2021/07/18 03:05:11;;;;;;;7.20;3.63;;;17.30;92.30;;;;;;4996936;28;20897;-79
2021/07/18 03:07:38;;;;;;;9.90;4.80;;;17.30;92.40;;;;;;4997444;28;20528;-79
2021/07/18 03:10:05;;;;;;;4.57;3.37;;;17.30;92.60;;;;;;4997358;28;20419;-79
2021/07/18 03:12:31;;;;;;;8.00;4.00;;;17.30;92.70;;;;;;4997646;28;20414;-80
2021/07/18 03:15:02;;;;;;;5.10;3.53;;;17.30;92.80;;;;;;4981008;28;20423;-79
2021/07/18 03:17:28;;;;;;;9.10;3.87;;;17.20;92.70;;;;;;4979298;28;20458;-78
2021/07/18 03:19:53;;;;;;;6.03;3.87;;;17.20;92.70;;;;;;4977786;28;20412;-78
2021/07/18 03:22:20;;;;;;;7.30;5.57;;;17.20;92.80;;;;;;4962530;28;20200;-79
2021/07/18 03:24:46;;;;;;;5.40;3.50;;;17.20;92.90;;;;;;4979071;28;20169;-78
2021/07/18 03:27:12;;;;;;;5.20;3.60;;;17.20;93.00;;;;;;4985382;28;21101;-78
2021/07/18 03:29:37;;;;;;;6.17;3.83;;;17.20;93.00;;;;;;4994805;28;20207;-77
2021/07/18 03:32:04;;;;;;;10.40;3.80;;;17.20;93.00;;;;;;4979467;28;20165;-79
2021/07/18 03:34:29;;;;;;;7.53;3.53;;;17.10;93.00;;;;;;4980914;28;20169;-80
2021/07/18 03:36:55;;;;;;;10.00;4.90;;;17.10;93.00;;;;;;4962773;28;20443;-77
2021/07/18 03:39:21;;;;;;;7.73;4.27;;;17.10;93.10;;;;;;4984750;28;20168;-79
2021/07/18 03:41:46;;;;;;;10.13;4.00;;;17.10;93.20;;;;;;4997996;28;20187;-79
2021/07/18 03:44:12;;;;;;;6.20;4.20;;;17.10;93.20;;;;;;4982839;28;20184;-79
2021/07/18 03:46:38;;;;;;;6.50;4.10;;;17.10;93.30;;;;;;4997763;28;20211;-80
2021/07/18 03:49:04;;;;;;;11.33;4.23;;;17.10;93.20;;;;;;5000169;28;20689;-79
2021/07/18 03:51:30;;;;;;;9.33;4.90;;;17.10;93.30;;;;;;5000246;28;20236;-79
2021/07/18 03:53:55;;;;;;;5.50;4.17;;;17.00;93.30;;;;;;5000314;28;20222;-80
2021/07/18 03:56:22;;;;;;;14.00;4.80;;;17.00;93.30;;;;;;4997482;28;20439;-79
2021/07/18 03:58:52;;;;;;;11.40;3.93;;;17.00;93.40;;;;;;4997474;28;20196;-79
2021/07/18 04:01:18;;;;;;;6.50;5.13;;;17.00;93.40;;;;;;4998041;28;20461;-79
2021/07/18 04:03:47;;;;;;;5.77;4.10;;;17.00;93.50;;;;;;4998869;28;20939;-79
2021/07/18 04:06:14;;;;;;;13.97;5.07;;;17.00;93.50;;;;;;4997151;28;20804;-79
2021/07/18 04:08:40;;;;;;;6.73;4.07;;;17.00;93.50;;;;;;4997030;28;21030;-79
2021/07/18 04:11:05;;;;;;;10.10;5.33;;;17.00;93.40;;;;;;5009315;28;20503;-79
2021/07/18 04:13:31;;;;;;;6.27;4.17;;;17.00;93.50;;;;;;5011030;28;20411;-78
2021/07/18 04:15:57;;;;;;;3.97;3.50;;;17.00;93.60;;;;;;5006036;28;20188;-80
2021/07/18 04:18:22;;;;;;;11.83;5.13;;;17.00;93.50;;;;;;4984662;28;20183;-78
2021/07/18 04:20:48;;;;;;;11.67;4.07;;;17.00;93.40;;;;;;4998075;28;20267;-78
2021/07/18 04:23:14;;;;;;;7.77;3.73;;;17.00;93.50;;;;;;4996947;28;20167;-78
2021/07/18 04:25:40;;;;;;;8.70;4.47;;;17.00;93.50;;;;;;4995744;28;20250;-78
2021/07/18 04:28:05;;;;;;;8.63;4.97;;;17.00;93.50;;;;;;4996647;28;20187;-79
2021/07/18 04:30:31;;;;;;;12.60;5.40;;;17.00;93.60;;;;;;4998141;28;20164;-78
2021/07/18 04:32:57;;;;;;;6.40;4.47;;;17.00;93.60;;;;;;4995047;28;20168;-78
2021/07/18 04:35:23;;;;;;;13.87;5.90;;;17.00;93.60;;;;;;4997713;28;20187;-79
2021/07/18 04:37:49;;;;;;;6.70;4.13;;;17.00;93.60;;;;;;4997108;28;20187;-80
2021/07/18 04:40:15;;;;;;;10.60;5.90;;;17.00;93.70;;;;;;4995827;28;20753;-78
2021/07/18 04:42:41;;;;;;;6.03;4.30;;;17.10;93.60;;;;;;4995268;28;20182;-79
2021/07/18 04:45:07;;;;;;;9.40;5.07;;;17.00;93.60;;;;;;4996638;28;20160;-79
2021/07/18 04:47:52;;;;;;;7.83;4.47;;;17.10;93.70;;;;;;4996162;28;21100;-79
2021/07/18 04:50:19;;;;;;;8.30;4.60;;;17.10;93.60;;;;;;4995262;28;20414;-80
2021/07/18 04:52:45;;;;;;;7.27;5.10;;;17.10;93.60;;;;;;4994725;28;20822;-79
2021/07/18 04:55:12;;;;;;;8.27;4.97;;;17.20;93.60;;;;;;4995846;28;20426;-79
2021/07/18 04:57:38;;;;;;;10.03;5.03;;;17.20;93.60;;;;;;4995275;28;20514;-79
2021/07/18 05:00:10;;;;;;;7.23;4.90;;;17.20;93.50;;;;;;4995919;28;20486;-79
2021/07/18 05:02:38;;;;;;;8.63;5.00;;;17.20;93.50;;;;;;4994419;28;20449;-80
2021/07/18 05:05:05;;;;;;;14.87;5.27;;;17.30;93.50;;;;;;4996239;28;20734;-78
2021/07/18 05:07:31;;;;;;;11.23;5.10;;;17.30;93.50;;;;;;4996869;28;20849;-79
2021/07/18 05:09:57;;;;;;;10.27;4.97;;;17.30;93.50;;;;;;4996769;28;20443;-79
2021/07/18 05:12:23;;;;;;;11.07;5.50;;;17.40;93.50;;;;;;4995545;28;20168;-80
2021/07/18 05:14:49;;;;;;;10.80;5.70;;;17.40;93.40;;;;;;4994460;28;20441;-79
2021/07/18 05:17:15;;;;;;;10.20;5.57;;;17.50;93.30;;;;;;4996682;28;20434;-79
2021/07/18 05:19:41;;;;;;;10.57;5.80;;;17.50;93.30;;;;;;4995285;28;20724;-79
2021/07/18 05:22:08;;;;;;;9.10;6.00;;;17.60;93.20;;;;;;4996568;28;20420;-79
2021/07/18 05:24:35;;;;;;;9.03;6.17;;;17.60;93.10;;;;;;4996383;28;20422;-79
2021/07/18 05:27:01;;;;;;;8.50;5.70;;;17.60;93.10;;;;;;5000113;28;20446;-78
2021/07/18 05:29:27;;;;;;;9.20;6.23;;;17.60;93.10;;;;;;4995432;28;20453;-79
2021/07/18 05:31:52;;;;;;;9.57;6.43;;;17.70;93.10;;;;;;4998029;28;20423;-78
2021/07/18 05:34:18;;;;;;;10.90;6.40;;;17.70;92.90;;;;;;4994605;28;20267;-79
2021/07/18 05:36:44;;;;;;;9.03;5.60;;;17.80;92.90;;;;;;4996964;28;20199;-79
2021/07/18 05:39:10;;;;;;;10.03;6.20;;;17.80;92.90;;;;;;4994596;28;20561;-80
2021/07/18 05:41:35;;;;;;;14.07;6.63;;;17.80;93.00;;;;;;4996836;28;20558;-78
2021/07/18 05:44:01;;;;;;;13.17;6.67;;;17.90;92.80;;;;;;4995287;28;20190;-78
2021/07/18 05:46:27;;;;;;;12.37;7.00;;;17.90;92.80;;;;;;4994988;28;20218;-79
2021/07/18 05:48:53;;;;;;;13.83;6.90;;;18.00;92.90;;;;;;4994926;28;20521;-80
2021/07/18 05:51:18;;;;;;;12.73;8.03;;;18.10;92.60;;;;;;4996995;28;20176;-79
2021/07/18 05:53:45;;;;;;;9.50;6.43;;;18.20;92.60;;;;;;4994942;28;20176;-79
2021/07/18 05:56:10;;;;;;;11.80;7.57;;;18.20;92.40;;;;;;4997575;28;20197;-77
2021/07/18 05:58:36;;;;;;;11.43;6.13;;;18.40;93.10;;;;;;5001657;28;20434;-79
2021/07/18 06:01:02;;;;;;;7.00;5.87;;;19.30;92.90;;;;;;4998904;28;20274;-79
2021/07/18 06:03:27;;;;;;;11.17;5.23;;;20.80;90.20;;;;;;4998687;28;20175;-79
2021/07/18 06:05:53;;;;;;;6.87;4.90;;;22.40;82.90;;;;;;4979581;28;20262;-79
2021/07/18 06:08:19;;;;;;;10.93;4.60;;;23.60;77.10;;;;;;4997656;28;20268;-79
2021/07/18 06:10:44;;;;;;;9.00;5.23;;;24.70;71.90;;;;;;4998151;28;20163;-79
2021/07/18 06:13:10;;;;;;;7.27;4.83;;;25.60;67.10;;;;;;4995396;28;20182;-80
2021/07/18 06:15:36;;;;;;;5.17;4.67;;;26.10;63.70;;;;;;4995425;28;20172;-79
2021/07/18 06:18:02;;;;;;;6.37;5.37;;;26.60;60.80;;;;;;4998815;28;20180;-79
2021/07/18 06:20:28;;;;;;;8.63;5.70;;;27.00;59.80;;;;;;4996213;28;20251;-80
2021/07/18 06:22:53;;;;;;;6.90;5.10;;;27.30;57.50;;;;;;5001606;28;20621;-80
2021/07/18 06:25:19;;;;;;;6.80;4.10;;;27.50;57.30;;;;;;5001096;28;20176;-79
2021/07/18 06:27:46;;;;;;;6.57;5.60;;;27.90;55.90;;;;;;5004141;28;20196;-79
2021/07/18 06:30:13;;;;;;;8.00;4.83;;;28.10;55.30;;;;;;5002659;28;20179;-77
2021/07/18 06:32:40;;;;;;;7.07;4.93;;;28.50;54.70;;;;;;5001373;28;20410;-79
2021/07/18 06:35:07;;;;;;;6.93;5.80;;;28.80;53.60;;;;;;5000676;28;20423;-79
2021/07/18 06:37:34;;;;;;;8.57;5.53;;;29.00;53.40;;;;;;4999967;28;20488;-78
2021/07/18 06:40:00;;;;;;;4.87;4.17;;;29.10;52.20;;;;;;4983617;28;20482;-78
2021/07/18 06:42:25;;;;;;;12.90;5.57;;;29.20;51.40;;;;;;4998995;28;20962;-79
2021/07/18 06:44:51;;;;;;;9.40;6.10;;;29.30;50.60;;;;;;5008282;28;20498;-80
2021/07/18 06:47:17;;;;;;;7.03;4.80;;;29.20;51.60;;;;;;5018869;28;20194;-78
2021/07/18 06:49:42;;;;;;;9.07;5.10;;;29.20;51.30;;;;;;5002186;28;20203;-80
2021/07/18 06:52:08;;;;;;;5.50;4.10;;;29.10;51.10;;;;;;5002920;28;20672;-79
2021/07/18 06:54:34;;;;;;;6.77;4.27;;;29.00;51.50;;;;;;4999710;28;20167;-80
2021/07/18 06:57:00;;;;;;;6.30;4.50;;;28.20;51.60;;;;;;4999708;28;20703;-80
2021/07/18 06:59:25;;;;;;;8.83;4.37;;;27.30;53.50;;;;;;4997184;28;20572;-79
2021/07/18 07:01:51;;;;;;;6.57;4.53;;;27.00;55.20;;;;;;4999734;28;20187;-78
2021/07/18 07:04:17;;;;;;;6.93;4.10;;;27.50;54.60;;;;;;4998463;28;20655;-78
2021/07/18 07:06:42;;;;;;;5.77;3.87;;;28.20;53.60;;;;;;5004342;28;20195;-79
2021/07/18 07:09:14;;;;;;;4.60;3.90;;;28.70;51.70;;;;;;5007174;28;20210;-81
2021/07/18 07:11:39;;;;;;;4.87;3.53;;;29.00;51.00;;;;;;4998530;28;20414;-78
2021/07/18 07:14:05;;;;;;;5.60;3.00;;;29.20;50.20;;;;;;4998630;28;20430;-79
2021/07/18 07:16:31;;;;;;;5.03;3.57;;;29.40;49.40;;;;;;4998272;28;20196;-79
2021/07/18 07:18:57;;;;;;;4.77;3.47;;;29.60;48.60;;;;;;5003349;28;20203;-79
2021/07/18 07:21:22;;;;;;;3.67;3.30;;;29.70;48.70;;;;;;4996900;28;20236;-79
2021/07/18 07:23:48;;;;;;;3.27;2.97;;;29.90;48.40;;;;;;4998934;28;20202;-80
2021/07/18 07:26:15;;;;;;;5.80;2.73;;;30.20;47.80;;;;;;4997692;28;20538;-78
2021/07/18 07:28:40;;;;;;;5.00;2.87;;;30.30;46.80;;;;;;4999883;28;20535;-78
2021/07/18 07:31:07;;;;;;;5.10;2.47;;;30.40;46.60;;;;;;5001010;28;20436;-79
2021/07/18 07:33:33;;;;;;;4.00;3.30;;;30.40;46.70;;;;;;5005124;28;20148;-79
2021/07/18 07:36:00;;;;;;;2.97;2.73;;;30.60;47.00;;;;;;4997586;28;20525;-79
2021/07/18 07:38:26;;;;;;;4.27;3.17;;;30.80;45.90;;;;;;5000812;28;20411;-80
2021/07/18 07:40:52;;;;;;;5.47;3.70;;;31.00;45.50;;;;;;5001292;28;20410;-78
2021/07/18 07:43:18;;;;;;;4.77;2.80;;;31.10;45.20;;;;;;4999384;28;20187;-81
2021/07/18 07:45:47;;;;;;;4.00;3.60;;;31.20;44.90;;;;;;5001514;28;20171;-80
2021/07/18 07:48:13;;;;;;;3.90;2.93;;;31.40;44.40;;;;;;5011333;28;20211;-81
2021/07/18 07:50:39;;;;;;;5.80;3.30;;;31.70;43.90;;;;;;4982110;28;21063;-78
2021/07/18 07:53:06;;;;;;;3.80;3.43;;;31.80;43.10;;;;;;4998285;28;20449;-79
2021/07/18 07:55:35;;;;;;;6.00;3.43;;;31.90;42.90;;;;;;5005736;28;20159;-81
2021/07/18 07:58:05;;;;;;;3.13;2.83;;;31.80;42.50;;;;;;5018024;23;20720;-82
2021/07/18 08:00:37;;;;;;;5.30;3.20;;;31.60;43.30;;;;;;4996789;28;20984;-85
2021/07/18 08:03:29;;;;;;;5.07;4.10;;;31.70;42.60;;;;;;4978456;28;20503;-82
2021/07/18 08:05:55;;;;;;;3.40;2.92;;;31.90;42.80;;;;;;4970346;28;20596;-86
2021/07/18 08:08:21;;;;;;;5.40;4.05;;;32.10;42.20;;;;;;4989146;28;20227;-85
2021/07/18 08:10:53;;;;;;;6.22;3.65;;;32.40;41.90;;;;;;4995067;28;20183;-84
2021/07/18 08:13:35;;;;;;;7.10;3.85;;;32.60;41.50;;;;;;4996500;28;20164;-84
2021/07/18 08:16:01;;;;;;;3.33;2.72;;;32.90;40.30;;;;;;4973747;28;20188;-85
2021/07/18 08:18:27;;;;;;;5.00;2.28;;;33.20;39.00;;;;;;4983146;28;20223;-83
2021/07/18 08:20:52;;;;;;;4.97;3.38;;;33.20;39.00;;;;;;4988101;28;20276;-84
2021/07/18 08:23:18;;;;;;;4.10;3.10;;;33.30;39.00;;;;;;4982669;28;20240;-85
2021/07/18 08:25:44;;;;;;;4.60;3.28;;;33.40;39.00;;;;;;4982067;28;20175;-85
2021/07/18 08:28:11;;;;;;;3.42;3.05;;;33.20;38.40;;;;;;4983001;28;20258;-84
2021/07/18 08:30:37;;;;;;;7.97;2.85;;;33.20;38.50;;;;;;4981408;28;20199;-84
2021/07/18 08:33:04;;;;;;;4.78;3.40;;;33.30;38.90;;;;;;4981369;28;20168;-83
2021/07/18 08:35:30;;;;;;;7.90;3.67;;;33.40;38.70;;;;;;4969053;28;20176;-85
2021/07/18 08:38:01;;;;;;;4.95;3.20;;;33.50;38.50;;;;;;4986005;28;20628;-86
2021/07/18 08:40:31;;;;;;;4.53;3.00;;;33.70;37.60;;;;;;4975047;28;20190;-84
2021/07/18 08:43:00;;;;;;;5.28;3.42;;;33.70;37.80;;;;;;4989167;28;20152;-83
2021/07/18 08:45:27;;;;;;;4.07;2.88;;;33.70;37.80;;;;;;4968476;28;20186;-83
2021/07/18 08:47:53;;;;;;;3.47;3.17;;;33.90;37.70;;;;;;4985314;28;20164;-82
2021/07/18 08:50:18;;;;;;;3.40;3.00;;;34.10;36.90;;;;;;4982007;28;20194;-86
2021/07/18 08:52:54;;;;;;;5.40;2.78;;;34.30;36.10;;;;;;4982160;28;20459;-85
2021/07/18 08:55:24;;;;;;;3.88;3.42;;;34.30;36.50;;;;;;4985320;28;20172;-86
2021/07/18 08:57:52;;;;;;;5.10;3.13;;;34.10;37.30;;;;;;4982235;28;20203;-87
2021/07/18 09:00:18;;;;;;;3.35;3.05;;;34.20;37.00;;;;;;4984015;28;20184;-84
2021/07/18 09:02:46;;;;;;;3.45;3.15;;;34.40;36.30;;;;;;4983099;28;20255;-84
2021/07/18 09:05:12;;;;;;;4.60;3.05;;;34.20;36.00;;;;;;4984667;28;20179;-84
2021/07/18 09:07:43;;;;;;;4.35;2.90;;;34.20;36.30;;;;;;4968634;28;20172;-85
2021/07/18 09:10:10;;;;;;;5.55;3.42;;;34.00;36.50;;;;;;4967173;28;20203;-85
2021/07/18 09:12:36;;;;;;;5.43;3.08;;;34.10;36.50;;;;;;4984446;28;20191;-85
2021/07/18 09:15:03;;;;;;;3.67;2.72;;;34.20;36.00;;;;;;4991978;28;20172;-84
2021/07/18 09:17:35;;;;;;;3.83;2.92;;;34.10;36.10;;;;;;4985215;28;20176;-84
2021/07/18 09:20:15;;;;;;;3.88;3.40;;;34.10;36.30;;;;;;4983500;28;20550;-84
2021/07/18 09:22:41;;;;;;;4.03;3.17;;;34.40;35.60;;;;;;4979242;28;20182;-84
2021/07/18 09:25:07;;;;;;;7.20;3.50;;;34.60;35.70;;;;;;4979749;28;20243;-82
2021/07/18 09:27:34;;;;;;;3.28;2.80;;;34.70;35.30;;;;;;4980390;28;20168;-84
2021/07/18 09:30:09;;;;;;;4.47;3.40;;;34.90;35.40;;;;;;4977848;28;20198;-84
2021/07/18 09:32:39;;;;;;;4.97;3.47;;;34.90;35.20;;;;;;4981803;28;20270;-85
2021/07/18 09:35:08;;;;;;;3.75;3.13;;;35.00;34.40;;;;;;4981999;28;20164;-83
2021/07/18 09:37:39;;;;;;;4.28;3.33;;;35.00;34.60;;;;;;4980965;28;20184;-86
2021/07/18 09:40:22;;;;;;;4.93;3.38;;;35.00;34.90;;;;;;4981344;28;20199;-84
2021/07/18 09:43:09;;;;;;;3.75;3.00;;;35.10;33.90;;;;;;4969031;28;20195;-84
2021/07/18 09:45:37;;;;;;;3.58;3.28;;;34.70;35.10;;;;;;4987667;28;20137;-84
2021/07/18 09:48:08;;;;;;;3.83;3.38;;;34.50;35.10;;;;;;4985952;28;20179;-83
2021/07/18 09:50:38;;;;;;;4.22;3.42;;;34.30;35.50;;;;;;4988353;28;20188;-84
2021/07/18 09:53:16;;;;;;;5.15;4.20;;;34.50;35.20;;;;;;4988458;28;20175;-85
2021/07/18 09:56:16;;;;;;;4.13;3.72;;;34.20;35.20;;;;;;4988904;28;20228;-85
2021/07/18 09:58:56;;;;;;;5.18;4.68;;;34.30;35.30;;;;;;4995612;28;20439;-84
2021/07/18 10:01:31;;;;;;;4.88;4.40;;;34.60;35.20;;;;;;4993357;28;20183;-84
2021/07/18 10:04:02;;;;;;;4.88;3.80;;;34.60;34.80;;;;;;4967274;28;20168;-85
2021/07/18 10:06:30;;;;;;;5.03;4.53;;;34.70;34.90;;;;;;4989131;28;20160;-83
2021/07/18 10:09:02;;;;;;;5.13;4.05;;;34.60;34.80;;;;;;4996697;28;20160;-83
2021/07/18 10:11:29;;;;;;;7.90;4.88;;;34.60;35.50;;;;;;4988531;28;20188;-82
2021/07/18 10:13:57;;;;;;;4.05;3.75;;;34.60;35.00;;;;;;4975387;28;20180;-84
2021/07/18 10:16:25;;;;;;;4.60;4.20;;;34.70;34.90;;;;;;4994559;28;20172;-84
2021/07/18 10:18:53;;;;;;;3.92;3.55;;;34.90;35.30;;;;;;4985179;28;20204;-85
2021/07/18 10:21:23;;;;;;;5.00;3.88;;;35.00;34.20;;;;;;4982317;28;20188;-82
2021/07/18 10:23:50;;;;;;;4.68;4.25;;;35.20;33.90;;;;;;4982375;28;20176;-83
2021/07/18 10:26:22;;;;;;;3.83;3.38;;;35.30;34.50;;;;;;4967046;28;20727;-82
2021/07/18 10:28:49;;;;;;;3.83;3.30;;;35.40;33.90;;;;;;4985893;28;20184;-84
2021/07/18 10:31:33;;;;;;;4.05;3.65;;;35.50;33.60;;;;;;4984437;28;20203;-84
2021/07/18 10:34:02;;;;;;;3.50;3.20;;;35.90;33.40;;;;;;4981587;28;20175;-84
2021/07/18 10:36:28;;;;;;;3.55;3.25;;;36.10;32.70;;;;;;4982200;28;20168;-83
2021/07/18 10:38:54;;;;;;;4.05;3.63;;;36.20;32.40;;;;;;4981545;28;20199;-84
2021/07/18 10:41:45;;;;;;;4.72;4.15;;;36.30;32.20;;;;;;4985003;28;20194;-83
2021/07/18 10:44:16;;;;;;;4.13;3.60;;;36.30;31.60;;;;;;4992275;28;20180;-83
2021/07/18 10:46:42;;;;;;;3.45;2.90;;;36.10;31.90;;;;;;4985309;28;20176;-85
2021/07/18 10:49:14;;;;;;;4.10;3.80;;;36.00;32.00;;;;;;4981976;28;20230;-83
2021/07/18 10:51:58;;;;;;;7.38;3.88;;;36.10;32.00;;;;;;4984880;28;20168;-83
2021/07/18 10:54:26;;;;;;;3.50;2.75;;;36.10;32.10;;;;;;4984046;28;20622;-84
2021/07/18 10:56:54;;;;;;;3.63;2.63;;;35.70;32.70;;;;;;4983069;28;20212;-84
2021/07/18 10:59:40;;;;;;;6.40;4.43;;;34.60;34.30;;;;;;4983137;28;20482;-84
2021/07/18 11:02:10;;;;;;;2.90;2.60;;;34.00;35.30;;;;;;4984462;28;20431;-84
2021/07/18 11:04:52;;;;;;;2.53;2.33;;;33.10;36.20;;;;;;4983779;28;20415;-84
2021/07/18 11:07:21;;;;;;;3.00;2.27;;;32.30;37.50;;;;;;4983941;28;20411;-83
2021/07/18 11:09:51;;;;;;;5.07;2.60;;;31.60;38.60;;;;;;4981648;28;20462;-84
2021/07/18 11:12:39;;;;;;;2.93;2.40;;;31.20;39.60;;;;;;4981055;28;20786;-83
2021/07/18 11:15:19;;;;;;;3.40;2.40;;;30.70;40.70;;;;;;4985539;28;20423;-80
2021/07/18 11:17:56;;;;;;;2.73;2.23;;;30.20;41.70;;;;;;4982771;28;20460;-84
2021/07/18 11:20:42;;;;;;;3.97;2.60;;;29.90;42.50;;;;;;4982463;28;20463;-87
2021/07/18 11:23:13;;;;;;;5.30;2.77;;;29.70;42.30;;;;;;4981582;28;20475;-85
2021/07/18 11:25:42;;;;;;;3.43;2.67;;;29.60;42.60;;;;;;4982362;28;20395;-85
2021/07/18 11:28:36;;;;;;;5.33;2.70;;;29.40;42.80;;;;;;4982119;28;20408;-84
2021/07/18 11:31:11;;;;;;;3.67;2.83;;;29.40;42.80;;;;;;4980734;28;20469;-84
2021/07/18 11:33:55;;;;;;;3.60;2.67;;;29.20;42.80;;;;;;4983554;28;20466;-85
2021/07/18 11:36:32;;;;;;;7.40;2.80;;;29.00;43.40;;;;;;4985079;28;20454;-85
2021/07/18 11:39:13;;;;;;;6.07;2.40;;;28.90;43.60;;;;;;4981223;28;20439;-84
2021/07/18 11:41:40;;;;;;;2.80;1.97;;;28.80;43.80;;;;;;4980092;28;20466;-84
2021/07/18 11:44:06;;;;;;;3.77;2.83;;;28.60;44.30;;;;;;4980998;28;20412;-84
2021/07/18 11:46:42;;;;;;;4.90;3.30;;;28.50;44.80;;;;;;4999594;28;20430;-84
2021/07/18 11:49:10;;;;;;;8.23;2.80;;;28.40;45.30;;;;;;4999375;28;20474;-83
2021/07/18 11:51:39;;;;;;;3.87;2.53;;;28.40;45.50;;;;;;5003514;28;20451;-86
2021/07/18 11:54:06;;;;;;;5.13;3.10;;;28.50;45.50;;;;;;4998136;28;20433;-84
2021/07/18 11:56:35;;;;;;;3.40;2.70;;;28.50;45.20;;;;;;4998963;28;20414;-84
2021/07/18 11:59:09;;;;;;;7.30;3.37;;;28.50;44.80;;;;;;5000139;28;20446;-84
2021/07/18 12:01:38;;;;;;;4.83;2.23;;;28.50;45.00;;;;;;4999838;28;20509;-85
2021/07/18 12:04:05;;;;;;;4.40;3.10;;;28.40;44.80;;;;;;5000928;28;20423;-85
2021/07/18 12:06:31;;;;;;;5.33;2.90;;;28.40;44.90;;;;;;4999795;28;20512;-84
2021/07/18 12:08:58;;;;;;;6.00;2.80;;;28.40;45.00;;;;;;5000057;28;20480;-84
2021/07/18 12:11:32;;;;;;;5.07;3.37;;;28.40;44.70;;;;;;4983912;28;20215;-85
2021/07/18 12:13:59;;;;;;;5.93;2.77;;;28.40;45.20;;;;;;5000894;28;20421;-86
2021/07/18 12:16:26;;;;;;;5.73;2.40;;;28.30;44.90;;;;;;4996015;28;20471;-86
2021/07/18 12:18:53;;;;;;;4.37;2.73;;;28.30;44.80;;;;;;4978845;28;20496;-86
2021/07/18 12:21:29;;;;;;;5.80;2.83;;;28.20;45.00;;;;;;4984027;28;20525;-84
2021/07/18 12:24:15;;;;;;;3.90;3.13;;;28.20;45.60;;;;;;4983972;28;20960;-83
2021/07/18 12:27:02;;;;;;;3.13;2.50;;;28.20;45.20;;;;;;4984275;28;20435;-84
2021/07/18 12:29:37;;;;;;;9.40;2.30;;;28.20;45.50;;;;;;4987269;28;20463;-85
2021/07/18 12:32:04;;;;;;;4.00;2.37;;;28.10;45.60;;;;;;4987639;28;20419;-84
2021/07/18 12:34:38;;;;;;;5.23;2.60;;;28.10;45.40;;;;;;4991810;28;20396;-83
2021/07/18 12:37:08;;;;;;;4.30;2.40;;;28.20;45.00;;;;;;4975696;28;20419;-84
2021/07/18 12:39:40;;;;;;;4.10;2.30;;;28.10;45.20;;;;;;4987435;28;20822;-84
2021/07/18 12:42:14;;;;;;;5.20;2.73;;;28.10;46.20;;;;;;4980986;28;20430;-84
2021/07/18 12:44:54;;;;;;;3.73;2.60;;;28.10;45.90;;;;;;4980685;28;20471;-84
2021/07/18 12:47:30;;;;;;;3.93;2.80;;;28.10;46.20;;;;;;4981988;28;20439;-84
2021/07/18 12:50:28;;;;;;;3.50;2.43;;;28.20;46.40;;;;;;4982163;28;20486;-84
2021/07/18 12:52:59;;;;;;;4.53;2.80;;;28.20;46.40;;;;;;4982429;28;20408;-84